Orting, WA (98360)

3:02 PM PST on February 13, 2016 (GMT -0800)
Crocker Hill | | Change Station
CLOSE
Current Station
Personal Weather Station
Location: Orting, WA
Elevation: 625 ft
Nearby Weather Stations

Elev 625 ft 47.06 °N, 122.18 °W | Updated 19 seconds ago

Rain
Rain
43.9 °F
Feels Like 44 °F
N
0.0
Wind Variable Wind from SSW
Gusts 0.0 mph

Today
High -- | Low -- °F
--% Chance of Precip.
Yesterday
High -- | Low -- °F
Precip. -- in
Pressure 30.19 in
Visibility 7.0 miles
Clouds Mostly Cloudy 2800 ft
Overcast 3600 ft
Windchill 44 °F
Dew Point 43 °F
Humidity 95%
Rainfall 0.49 in
Snow Depth Not available.
7:17 AM 5:29 PM
Waxing Crescent, 35% visible
METAR KTCM 132258Z AUTO 18009KT 7SM UP BKN028 OVC036 08/08 A3017 RMK AO2 UPE01RAB01E29UPB29E33RAB33E46UPB46 CIG 019 RWY34 SLP222 P0010 T00780076 $
Pressure 30.19 in
Visibility 7.0 miles
Clouds Mostly Cloudy 2800 ft
Overcast 3600 ft
Windchill 44 °F
Dew Point 43 °F
Humidity 95%
Rainfall 0.49 in
Snow Depth Not available.
7:17 AM 5:29 PM
Waxing Crescent, 35% visible
METAR KTCM 132258Z AUTO 18009KT 7SM UP BKN028 OVC036 08/08 A3017 RMK AO2 UPE01RAB01E29UPB29E33RAB33E46UPB46 CIG 019 RWY34 SLP222 P0010 T00780076 $

10-Day Weather Forecast

Almanac

Astronomy

Feb. 13, 2016 Rise Set
Actual Time
Civil Twilight
Nautical Twilight
Astronomical Twilight
Moon
Length of Visible Light
Length of Day
Tomorrow will be .
, % of the Moon is Illuminated

Today's Extremes

State Highs State Lows

Community

WunderPhotos

Upload Photos

1,892,692 photos uploaded!

WunderBlog® & News

Nearby

Air Quality

  Air Quality AQ Index Pollutant
Not available.

Snow Depth

Station Depth Elevation

Earthquake Activity

City Distance Mag. Time & Date
Minimum magnitude displayed is 2.5.

Coastal Water Temperatures

Place Temperature

Stations

Nearby Weather Stations

Station Location Temp. Windchill Dew Point Humidity Wind Precip. Elev Updated Type
                   

Watches & Warnings

There are currently no watches in effect.